sensor_id;sensor_type;location;lat;lon;timestamp;pressure;altitude;pressure_sealevel;temperature;humidity
76753;BME280;65687;51.308;16.916;2023-07-13T00:03:20;99262.69;;;20.45;65.74
76753;BME280;65687;51.308;16.916;2023-07-13T00:08:22;99270.25;;;20.46;63.92
76753;BME280;65687;51.308;16.916;2023-07-13T00:13:24;99267.64;;;20.44;63.35
76753;BME280;65687;51.308;16.916;2023-07-13T00:18:25;99260.65;;;20.36;63.78
76753;BME280;65687;51.308;16.916;2023-07-13T00:23:27;99248.93;;;20.23;64.36
76753;BME280;65687;51.308;16.916;2023-07-13T00:28:28;99250.08;;;20.11;65.29
76753;BME280;65687;51.308;16.916;2023-07-13T00:33:30;99257.09;;;20.00;65.36
76753;BME280;65687;51.308;16.916;2023-07-13T00:38:32;99261.23;;;19.92;65.02
76753;BME280;65687;51.308;16.916;2023-07-13T00:43:33;99257.99;;;19.84;65.03
76753;BME280;65687;51.308;16.916;2023-07-13T00:48:36;99265.71;;;19.75;64.77
76753;BME280;65687;51.308;16.916;2023-07-13T00:53:39;99264.70;;;19.68;64.60
76753;BME280;65687;51.308;16.916;2023-07-13T00:58:40;99270.70;;;19.59;64.87
76753;BME280;65687;51.308;16.916;2023-07-13T01:03:43;99270.98;;;19.48;65.12
76753;BME280;65687;51.308;16.916;2023-07-13T01:08:45;99267.66;;;19.38;65.12
76753;BME280;65687;51.308;16.916;2023-07-13T01:13:46;99258.55;;;19.27;65.03
76753;BME280;65687;51.308;16.916;2023-07-13T01:18:48;99250.45;;;19.17;65.41
76753;BME280;65687;51.308;16.916;2023-07-13T01:23:49;99252.63;;;19.07;65.52
76753;BME280;65687;51.308;16.916;2023-07-13T01:28:51;99249.89;;;19.00;66.34
76753;BME280;65687;51.308;16.916;2023-07-13T01:33:53;99253.20;;;18.94;66.52
76753;BME280;65687;51.308;16.916;2023-07-13T01:38:55;99253.92;;;18.88;66.44
76753;BME280;65687;51.308;16.916;2023-07-13T01:43:57;99249.85;;;18.81;66.45
76753;BME280;65687;51.308;16.916;2023-07-13T01:48:58;99249.34;;;18.74;66.32
76753;BME280;65687;51.308;16.916;2023-07-13T01:54:00;99250.91;;;18.68;66.04
76753;BME280;65687;51.308;16.916;2023-07-13T01:59:01;99248.85;;;18.61;65.99
76753;BME280;65687;51.308;16.916;2023-07-13T02:04:03;99250.36;;;18.54;66.02
76753;BME280;65687;51.308;16.916;2023-07-13T02:09:05;99247.16;;;18.48;66.25
76753;BME280;65687;51.308;16.916;2023-07-13T02:14:07;99231.29;;;18.43;66.04
76753;BME280;65687;51.308;16.916;2023-07-13T02:19:08;99219.70;;;18.37;66.07
76753;BME280;65687;51.308;16.916;2023-07-13T02:24:10;99223.02;;;18.33;65.84
76753;BME280;65687;51.308;16.916;2023-07-13T02:29:16;99218.52;;;18.30;66.63
76753;BME280;65687;51.308;16.916;2023-07-13T02:34:17;99215.21;;;18.28;67.14
76753;BME280;65687;51.308;16.916;2023-07-13T02:39:19;99207.10;;;18.25;67.25
76753;BME280;65687;51.308;16.916;2023-07-13T02:44:21;99208.71;;;18.22;67.35
76753;BME280;65687;51.308;16.916;2023-07-13T02:49:22;99212.60;;;18.19;67.28
76753;BME280;65687;51.308;16.916;2023-07-13T02:54:24;99224.30;;;18.15;67.21
76753;BME280;65687;51.308;16.916;2023-07-13T02:59:25;99236.83;;;18.10;67.51
76753;BME280;65687;51.308;16.916;2023-07-13T03:04:27;99246.07;;;18.04;67.68
76753;BME280;65687;51.308;16.916;2023-07-13T03:09:28;99242.00;;;17.99;68.41
76753;BME280;65687;51.308;16.916;2023-07-13T03:14:30;99241.57;;;17.96;68.64
76753;BME280;65687;51.308;16.916;2023-07-13T03:19:31;99243.02;;;17.92;68.62
76753;BME280;65687;51.308;16.916;2023-07-13T03:24:34;99236.07;;;17.88;68.81
76753;BME280;65687;51.308;16.916;2023-07-13T03:29:35;99233.45;;;17.85;68.70
76753;BME280;65687;51.308;16.916;2023-07-13T03:34:37;99232.05;;;17.85;68.84
76753;BME280;65687;51.308;16.916;2023-07-13T03:39:38;99231.59;;;17.86;69.04
76753;BME280;65687;51.308;16.916;2023-07-13T03:44:40;99238.81;;;17.88;69.59
76753;BME280;65687;51.308;16.916;2023-07-13T03:49:42;99246.91;;;17.91;69.62
76753;BME280;65687;51.308;16.916;2023-07-13T03:54:43;99245.96;;;17.93;69.11
76753;BME280;65687;51.308;16.916;2023-07-13T03:59:45;99249.95;;;17.96;69.13
76753;BME280;65687;51.308;16.916;2023-07-13T04:04:47;99264.79;;;18.01;69.64
76753;BME280;65687;51.308;16.916;2023-07-13T04:09:48;99267.80;;;18.06;70.60
76753;BME280;65687;51.308;16.916;2023-07-13T04:14:50;99293.62;;;18.13;69.74
76753;BME280;65687;51.308;16.916;2023-07-13T04:19:51;99362.92;;;18.22;68.09
76753;BME280;65687;51.308;16.916;2023-07-13T04:24:53;99399.23;;;18.37;65.00
76753;BME280;65687;51.308;16.916;2023-07-13T04:29:54;99434.20;;;18.40;66.66
76753;BME280;65687;51.308;16.916;2023-07-13T04:34:56;99443.73;;;18.21;69.86
76753;BME280;65687;51.308;16.916;2023-07-13T04:39:59;99460.05;;;17.87;72.54
76753;BME280;65687;51.308;16.916;2023-07-13T04:45:00;99469.77;;;17.54;74.33
76753;BME280;65687;51.308;16.916;2023-07-13T04:50:02;99480.77;;;17.25;75.18
76753;BME280;65687;51.308;16.916;2023-07-13T04:55:04;99490.34;;;17.05;76.09
76753;BME280;65687;51.308;16.916;2023-07-13T05:00:07;99505.03;;;16.91;76.68
76753;BME280;65687;51.308;16.916;2023-07-13T05:05:09;99519.14;;;16.79;77.03
76753;BME280;65687;51.308;16.916;2023-07-13T05:10:10;99534.58;;;16.67;78.09
76753;BME280;65687;51.308;16.916;2023-07-13T05:15:12;99535.64;;;16.60;79.04
76753;BME280;65687;51.308;16.916;2023-07-13T05:20:13;99519.15;;;16.56;79.83
76753;BME280;65687;51.308;16.916;2023-07-13T05:25:16;99480.46;;;16.42;81.15
76753;BME280;65687;51.308;16.916;2023-07-13T05:30:17;99442.97;;;16.28;82.03
76753;BME280;65687;51.308;16.916;2023-07-13T05:35:19;99405.02;;;16.20;82.70
76753;BME280;65687;51.308;16.916;2023-07-13T05:40:20;99377.27;;;16.11;82.97
76753;BME280;65687;51.308;16.916;2023-07-13T05:45:22;99388.49;;;16.11;82.75
76753;BME280;65687;51.308;16.916;2023-07-13T05:50:23;99400.38;;;16.14;82.71
76753;BME280;65687;51.308;16.916;2023-07-13T05:55:25;99406.61;;;16.17;82.08
76753;BME280;65687;51.308;16.916;2023-07-13T06:00:27;99408.41;;;16.20;81.98
76753;BME280;65687;51.308;16.916;2023-07-13T06:05:28;99418.58;;;16.23;82.42
76753;BME280;65687;51.308;16.916;2023-07-13T06:10:33;99421.23;;;16.25;83.49
76753;BME280;65687;51.308;16.916;2023-07-13T06:15:35;99429.36;;;16.29;83.57
76753;BME280;65687;51.308;16.916;2023-07-13T06:20:36;99440.74;;;16.38;83.38
76753;BME280;65687;51.308;16.916;2023-07-13T06:25:38;99439.92;;;16.48;83.57
76753;BME280;65687;51.308;16.916;2023-07-13T06:30:39;99441.27;;;16.58;83.85
76753;BME280;65687;51.308;16.916;2023-07-13T06:35:40;99435.38;;;16.69;85.11
76753;BME280;65687;51.308;16.916;2023-07-13T06:40:42;99439.23;;;16.81;85.71
76753;BME280;65687;51.308;16.916;2023-07-13T06:45:45;99437.36;;;16.92;85.98
76753;BME280;65687;51.308;16.916;2023-07-13T06:50:49;99439.68;;;17.05;85.77
76753;BME280;65687;51.308;16.916;2023-07-13T06:55:52;99435.17;;;17.24;85.29
76753;BME280;65687;51.308;16.916;2023-07-13T07:00:53;99448.89;;;17.37;85.53
76753;BME280;65687;51.308;16.916;2023-07-13T07:06:22;99464.46;;;17.44;85.16
76753;BME280;65687;51.308;16.916;2023-07-13T07:11:26;99497.23;;;17.43;84.72
76753;BME280;65687;51.308;16.916;2023-07-13T07:16:28;99521.69;;;17.34;85.00
76753;BME280;65687;51.308;16.916;2023-07-13T07:21:29;99550.52;;;17.28;85.28
76753;BME280;65687;51.308;16.916;2023-07-13T07:26:32;99566.49;;;17.26;85.05
76753;BME280;65687;51.308;16.916;2023-07-13T07:31:33;99557.00;;;17.23;84.87
76753;BME280;65687;51.308;16.916;2023-07-13T07:36:35;99531.46;;;17.24;84.86
76753;BME280;65687;51.308;16.916;2023-07-13T07:41:37;99489.73;;;17.22;85.49
76753;BME280;65687;51.308;16.916;2023-07-13T07:46:39;99456.21;;;17.15;86.54
76753;BME280;65687;51.308;16.916;2023-07-13T07:51:41;99446.89;;;17.17;86.63
76753;BME280;65687;51.308;16.916;2023-07-13T07:56:43;99439.98;;;17.25;86.25
76753;BME280;65687;51.308;16.916;2023-07-13T08:01:45;99427.48;;;17.35;86.40
76753;BME280;65687;51.308;16.916;2023-07-13T08:06:47;99419.73;;;17.44;86.68
76753;BME280;65687;51.308;16.916;2023-07-13T08:11:49;99427.88;;;17.53;86.31
76753;BME280;65687;51.308;16.916;2023-07-13T08:16:50;99445.67;;;17.64;85.00
76753;BME280;65687;51.308;16.916;2023-07-13T08:21:52;99468.30;;;17.78;85.71
76753;BME280;65687;51.308;16.916;2023-07-13T08:26:53;99483.99;;;17.94;85.45
76753;BME280;65687;51.308;16.916;2023-07-13T08:31:55;99485.44;;;18.14;85.17
76753;BME280;65687;51.308;16.916;2023-07-13T08:36:56;99483.45;;;18.34;84.02
76753;BME280;65687;51.308;16.916;2023-07-13T08:42:01;99494.52;;;18.50;83.42
76753;BME280;65687;51.308;16.916;2023-07-13T08:47:06;99496.48;;;18.65;82.29
76753;BME280;65687;51.308;16.916;2023-07-13T08:52:17;99501.55;;;18.75;81.63
76753;BME280;65687;51.308;16.916;2023-07-13T08:57:32;99502.95;;;18.90;81.57
76753;BME280;65687;51.308;16.916;2023-07-13T09:02:49;99511.52;;;19.10;80.77
76753;BME280;65687;51.308;16.916;2023-07-13T09:08:06;99521.85;;;19.32;79.07
76753;BME280;65687;51.308;16.916;2023-07-13T09:18:32;99520.77;;;19.64;78.60
76753;BME280;65687;51.308;16.916;2023-07-13T09:23:35;99529.16;;;19.71;78.90
76753;BME280;65687;51.308;16.916;2023-07-13T09:28:43;99525.31;;;19.82;79.66
76753;BME280;65687;51.308;16.916;2023-07-13T09:33:45;99532.66;;;19.96;78.52
76753;BME280;65687;51.308;16.916;2023-07-13T09:38:48;99535.73;;;20.03;77.77
76753;BME280;65687;51.308;16.916;2023-07-13T09:44:17;99536.76;;;20.11;78.53
76753;BME280;65687;51.308;16.916;2023-07-13T09:49:28;99540.05;;;20.20;77.97
76753;BME280;65687;51.308;16.916;2023-07-13T09:54:34;99546.48;;;20.24;76.63
76753;BME280;65687;51.308;16.916;2023-07-13T09:59:45;99545.55;;;20.29;76.06
76753;BME280;65687;51.308;16.916;2023-07-13T10:04:55;99545.55;;;20.35;76.15
76753;BME280;65687;51.308;16.916;2023-07-13T10:10:00;99544.09;;;20.40;75.82
76753;BME280;65687;51.308;16.916;2023-07-13T10:15:03;99552.41;;;20.43;75.57
76753;BME280;65687;51.308;16.916;2023-07-13T10:20:10;99549.45;;;20.50;75.37
76753;BME280;65687;51.308;16.916;2023-07-13T10:25:16;99542.30;;;20.60;74.79
76753;BME280;65687;51.308;16.916;2023-07-13T10:30:29;99538.74;;;20.71;74.14
76753;BME280;65687;51.308;16.916;2023-07-13T10:35:33;99545.90;;;20.87;72.14
76753;BME280;65687;51.308;16.916;2023-07-13T10:40:39;99548.98;;;21.04;72.58
76753;BME280;65687;51.308;16.916;2023-07-13T10:45:45;99551.21;;;21.13;72.09
76753;BME280;65687;51.308;16.916;2023-07-13T10:50:49;99552.08;;;21.15;71.23
76753;BME280;65687;51.308;16.916;2023-07-13T11:06:07;99566.40;;;21.09;70.09
76753;BME280;65687;51.308;16.916;2023-07-13T11:16:36;99567.17;;;20.95;69.79
76753;BME280;65687;51.308;16.916;2023-07-13T11:22:03;99569.50;;;20.90;70.04
76753;BME280;65687;51.308;16.916;2023-07-13T11:32:32;99569.69;;;21.01;69.80
76753;BME280;65687;51.308;16.916;2023-07-13T11:37:33;99566.30;;;21.12;69.02
76753;BME280;65687;51.308;16.916;2023-07-13T11:42:35;99558.23;;;21.22;68.31
76753;BME280;65687;51.308;16.916;2023-07-13T11:47:40;99560.93;;;21.27;67.27
76753;BME280;65687;51.308;16.916;2023-07-13T11:52:43;99563.52;;;21.29;66.01
76753;BME280;65687;51.308;16.916;2023-07-13T11:57:50;99567.91;;;21.34;65.69
76753;BME280;65687;51.308;16.916;2023-07-13T12:02:54;99565.89;;;21.45;66.03
76753;BME280;65687;51.308;16.916;2023-07-13T12:07:57;99563.85;;;21.57;65.50
76753;BME280;65687;51.308;16.916;2023-07-13T12:13:01;99566.42;;;21.67;64.27
76753;BME280;65687;51.308;16.916;2023-07-13T12:18:15;99565.52;;;21.76;64.35
76753;BME280;65687;51.308;16.916;2023-07-13T12:23:24;99549.98;;;21.83;63.33
76753;BME280;65687;51.308;16.916;2023-07-13T12:33:33;99552.59;;;21.96;61.07
76753;BME280;65687;51.308;16.916;2023-07-13T12:38:35;99553.30;;;22.08;64.35
76753;BME280;65687;51.308;16.916;2023-07-13T12:43:37;99542.91;;;22.15;61.83
76753;BME280;65687;51.308;16.916;2023-07-13T12:48:41;99533.55;;;22.22;62.08
76753;BME280;65687;51.308;16.916;2023-07-13T12:53:57;99526.58;;;22.28;59.79
76753;BME280;65687;51.308;16.916;2023-07-13T12:59:03;99528.75;;;22.37;60.65
76753;BME280;65687;51.308;16.916;2023-07-13T13:04:09;99526.48;;;22.47;58.23
76753;BME280;65687;51.308;16.916;2023-07-13T13:09:14;99517.64;;;22.58;56.53
76753;BME280;65687;51.308;16.916;2023-07-13T13:14:16;99515.80;;;22.62;57.73
76753;BME280;65687;51.308;16.916;2023-07-13T13:19:25;99511.84;;;22.62;57.34
76753;BME280;65687;51.308;16.916;2023-07-13T13:24:27;99501.27;;;22.71;53.85
76753;BME280;65687;51.308;16.916;2023-07-13T13:29:34;99506.41;;;22.81;54.07
76753;BME280;65687;51.308;16.916;2023-07-13T13:34:37;99502.53;;;22.90;52.46
76753;BME280;65687;51.308;16.916;2023-07-13T13:39:38;99507.95;;;22.97;52.40
76753;BME280;65687;51.308;16.916;2023-07-13T13:44:40;99515.29;;;23.08;52.17
76753;BME280;65687;51.308;16.916;2023-07-13T13:49:44;99505.11;;;23.07;51.94
76753;BME280;65687;51.308;16.916;2023-07-13T13:54:46;99507.13;;;23.02;51.84
76753;BME280;65687;51.308;16.916;2023-07-13T13:59:49;99508.41;;;23.08;49.87
76753;BME280;65687;51.308;16.916;2023-07-13T14:04:51;99510.58;;;23.21;49.03
76753;BME280;65687;51.308;16.916;2023-07-13T14:09:57;99511.13;;;23.25;48.27
76753;BME280;65687;51.308;16.916;2023-07-13T14:14:59;99503.63;;;23.33;48.54
76753;BME280;65687;51.308;16.916;2023-07-13T14:20:00;99499.89;;;23.42;48.57
76753;BME280;65687;51.308;16.916;2023-07-13T14:25:02;99512.48;;;23.43;50.29
76753;BME280;65687;51.308;16.916;2023-07-13T14:30:15;99520.40;;;23.41;50.37
76753;BME280;65687;51.308;16.916;2023-07-13T14:35:20;99532.70;;;23.28;50.87
76753;BME280;65687;51.308;16.916;2023-07-13T14:40:28;99536.27;;;23.04;52.31
76753;BME280;65687;51.308;16.916;2023-07-13T14:45:32;99538.36;;;22.90;53.57
76753;BME280;65687;51.308;16.916;2023-07-13T14:50:34;99540.95;;;22.76;54.38
76753;BME280;65687;51.308;16.916;2023-07-13T14:55:37;99547.33;;;22.63;56.56
76753;BME280;65687;51.308;16.916;2023-07-13T15:00:39;99545.62;;;22.51;57.69
76753;BME280;65687;51.308;16.916;2023-07-13T15:05:41;99533.20;;;22.35;59.43
76753;BME280;65687;51.308;16.916;2023-07-13T15:10:43;99537.59;;;22.15;58.15
76753;BME280;65687;51.308;16.916;2023-07-13T15:15:47;99522.37;;;21.98;60.43
76753;BME280;65687;51.308;16.916;2023-07-13T15:20:50;99520.62;;;21.85;59.86
76753;BME280;65687;51.308;16.916;2023-07-13T15:25:54;99519.28;;;21.76;59.54
76753;BME280;65687;51.308;16.916;2023-07-13T15:30:55;99524.99;;;21.79;59.67
76753;BME280;65687;51.308;16.916;2023-07-13T15:35:57;99516.58;;;21.80;60.25
76753;BME280;65687;51.308;16.916;2023-07-13T15:41:00;99510.98;;;21.73;60.54
76753;BME280;65687;51.308;16.916;2023-07-13T15:46:02;99513.67;;;21.69;59.99
76753;BME280;65687;51.308;16.916;2023-07-13T15:51:04;99517.76;;;21.66;59.98
76753;BME280;65687;51.308;16.916;2023-07-13T15:56:21;99519.09;;;21.53;63.68
76753;BME280;65687;51.308;16.916;2023-07-13T16:01:24;99521.21;;;21.36;65.94
76753;BME280;65687;51.308;16.916;2023-07-13T16:06:32;99519.98;;;21.24;66.22
76753;BME280;65687;51.308;16.916;2023-07-13T16:11:37;99519.14;;;21.16;66.38
76753;BME280;65687;51.308;16.916;2023-07-13T16:16:39;99526.00;;;21.06;67.90
76753;BME280;65687;51.308;16.916;2023-07-13T16:21:44;99534.24;;;20.97;68.61
76753;BME280;65687;51.308;16.916;2023-07-13T16:26:48;99533.38;;;20.87;69.89
76753;BME280;65687;51.308;16.916;2023-07-13T16:32:01;99535.18;;;20.83;70.12
76753;BME280;65687;51.308;16.916;2023-07-13T16:42:15;99532.63;;;20.74;71.36
76753;BME280;65687;51.308;16.916;2023-07-13T16:47:16;99539.64;;;20.73;71.35
76753;BME280;65687;51.308;16.916;2023-07-13T16:52:18;99542.70;;;20.72;72.30
76753;BME280;65687;51.308;16.916;2023-07-13T16:57:29;99544.98;;;20.66;73.23
76753;BME280;65687;51.308;16.916;2023-07-13T17:02:36;99542.43;;;20.59;73.28
76753;BME280;65687;51.308;16.916;2023-07-13T17:07:40;99546.33;;;20.56;73.47
76753;BME280;65687;51.308;16.916;2023-07-13T17:12:44;99543.70;;;20.54;74.78
76753;BME280;65687;51.308;16.916;2023-07-13T17:17:48;99544.23;;;20.47;74.80
76753;BME280;65687;51.308;16.916;2023-07-13T17:22:51;99542.24;;;20.41;74.97
76753;BME280;65687;51.308;16.916;2023-07-13T17:27:53;99540.17;;;20.33;74.86
76753;BME280;65687;51.308;16.916;2023-07-13T17:32:54;99536.91;;;20.25;73.83
76753;BME280;65687;51.308;16.916;2023-07-13T17:37:58;99539.06;;;20.22;73.60
76753;BME280;65687;51.308;16.916;2023-07-13T17:43:01;99547.27;;;20.13;73.69
76753;BME280;65687;51.308;16.916;2023-07-13T17:48:02;99544.68;;;20.05;73.50
76753;BME280;65687;51.308;16.916;2023-07-13T17:58:08;99550.80;;;19.88;72.84
76753;BME280;65687;51.308;16.916;2023-07-13T18:03:15;99555.89;;;19.78;72.90
76753;BME280;65687;51.308;16.916;2023-07-13T18:08:22;99558.90;;;19.68;73.02
76753;BME280;65687;51.308;16.916;2023-07-13T18:13:25;99561.98;;;19.61;73.09
76753;BME280;65687;51.308;16.916;2023-07-13T18:18:29;99571.14;;;19.50;73.43
76753;BME280;65687;51.308;16.916;2023-07-13T18:23:35;99584.89;;;19.40;73.91
76753;BME280;65687;51.308;16.916;2023-07-13T18:28:36;99591.45;;;19.35;73.47
76753;BME280;65687;51.308;16.916;2023-07-13T18:33:39;99590.73;;;19.26;73.88
76753;BME280;65687;51.308;16.916;2023-07-13T18:38:44;99593.33;;;19.22;74.49
76753;BME280;65687;51.308;16.916;2023-07-13T18:43:47;99604.38;;;19.25;74.81
76753;BME280;65687;51.308;16.916;2023-07-13T18:48:51;99632.97;;;19.25;75.59
76753;BME280;65687;51.308;16.916;2023-07-13T18:53:53;99632.39;;;19.10;76.54
76753;BME280;65687;51.308;16.916;2023-07-13T18:58:55;99632.14;;;18.77;76.95
76753;BME280;65687;51.308;16.916;2023-07-13T19:03:57;99643.56;;;18.58;78.15
76753;BME280;65687;51.308;16.916;2023-07-13T19:08:59;99638.30;;;18.49;78.94
76753;BME280;65687;51.308;16.916;2023-07-13T19:14:01;99643.72;;;18.30;80.73
76753;BME280;65687;51.308;16.916;2023-07-13T19:19:10;99657.41;;;18.15;81.61
76753;BME280;65687;51.308;16.916;2023-07-13T19:24:18;99656.45;;;18.01;82.28
76753;BME280;65687;51.308;16.916;2023-07-13T19:29:23;99665.65;;;17.89;82.40
76753;BME280;65687;51.308;16.916;2023-07-13T19:34:26;99673.13;;;17.83;82.88
76753;BME280;65687;51.308;16.916;2023-07-13T19:39:33;99679.56;;;17.77;83.37
76753;BME280;65687;51.308;16.916;2023-07-13T19:44:35;99679.58;;;17.62;83.85
76753;BME280;65687;51.308;16.916;2023-07-13T19:49:39;99681.67;;;17.59;84.08
76753;BME280;65687;51.308;16.916;2023-07-13T19:54:41;99682.59;;;17.56;83.66
76753;BME280;65687;51.308;16.916;2023-07-13T19:59:42;99684.54;;;17.48;83.84
76753;BME280;65687;51.308;16.916;2023-07-13T20:04:46;99696.50;;;17.39;83.87
76753;BME280;65687;51.308;16.916;2023-07-13T20:09:50;99694.77;;;17.28;84.19
76753;BME280;65687;51.308;16.916;2023-07-13T20:14:53;99697.84;;;17.23;84.09
76753;BME280;65687;51.308;16.916;2023-07-13T20:19:55;99707.55;;;17.18;84.25
76753;BME280;65687;51.308;16.916;2023-07-13T20:24:57;99716.77;;;17.14;84.43
76753;BME280;65687;51.308;16.916;2023-07-13T20:29:59;99713.16;;;17.08;85.11
76753;BME280;65687;51.308;16.916;2023-07-13T20:35:00;99709.42;;;17.05;85.09
76753;BME280;65687;51.308;16.916;2023-07-13T20:40:13;99713.39;;;16.96;85.38
76753;BME280;65687;51.308;16.916;2023-07-13T20:45:15;99711.34;;;16.92;85.78
76753;BME280;65687;51.308;16.916;2023-07-13T20:50:24;99712.01;;;16.91;85.83
76753;BME280;65687;51.308;16.916;2023-07-13T20:55:28;99716.02;;;16.90;85.89
76753;BME280;65687;51.308;16.916;2023-07-13T21:00:30;99720.31;;;16.90;85.77
76753;BME280;65687;51.308;16.916;2023-07-13T21:05:41;99720.36;;;16.86;85.46
76753;BME280;65687;51.308;16.916;2023-07-13T21:10:44;99730.88;;;16.81;85.26
76753;BME280;65687;51.308;16.916;2023-07-13T21:15:46;99739.66;;;16.74;85.25
76753;BME280;65687;51.308;16.916;2023-07-13T21:20:49;99743.71;;;16.60;85.25
76753;BME280;65687;51.308;16.916;2023-07-13T21:25:50;99741.65;;;16.47;85.93
76753;BME280;65687;51.308;16.916;2023-07-13T21:30:55;99743.63;;;16.38;85.63
76753;BME280;65687;51.308;16.916;2023-07-13T21:35:58;99733.05;;;16.25;85.66
76753;BME280;65687;51.308;16.916;2023-07-13T21:41:03;99742.20;;;16.19;85.64
76753;BME280;65687;51.308;16.916;2023-07-13T21:46:10;99744.27;;;16.11;85.48
76753;BME280;65687;51.308;16.916;2023-07-13T21:51:21;99744.10;;;15.99;85.59
76753;BME280;65687;51.308;16.916;2023-07-13T21:56:23;99744.54;;;15.93;85.10
76753;BME280;65687;51.308;16.916;2023-07-13T22:01:29;99750.05;;;15.91;85.00
76753;BME280;65687;51.308;16.916;2023-07-13T22:06:34;99751.80;;;15.84;85.15
76753;BME280;65687;51.308;16.916;2023-07-13T22:11:35;99755.84;;;15.71;85.34
76753;BME280;65687;51.308;16.916;2023-07-13T22:16:37;99755.24;;;15.61;85.56
76753;BME280;65687;51.308;16.916;2023-07-13T22:21:39;99753.63;;;15.52;85.45
76753;BME280;65687;51.308;16.916;2023-07-13T22:26:41;99751.80;;;15.42;85.59
76753;BME280;65687;51.308;16.916;2023-07-13T22:31:43;99752.48;;;15.30;85.69
76753;BME280;65687;51.308;16.916;2023-07-13T22:36:47;99757.86;;;15.21;85.84
76753;BME280;65687;51.308;16.916;2023-07-13T22:41:49;99753.50;;;15.15;86.00
76753;BME280;65687;51.308;16.916;2023-07-13T22:46:51;99754.89;;;15.08;86.13
76753;BME280;65687;51.308;16.916;2023-07-13T22:51:56;99753.42;;;15.02;86.10
76753;BME280;65687;51.308;16.916;2023-07-13T22:56:58;99757.97;;;15.01;86.54
76753;BME280;65687;51.308;16.916;2023-07-13T23:02:00;99763.61;;;15.06;86.43
76753;BME280;65687;51.308;16.916;2023-07-13T23:07:04;99773.36;;;15.11;86.55
76753;BME280;65687;51.308;16.916;2023-07-13T23:12:09;99779.80;;;15.14;86.25
76753;BME280;65687;51.308;16.916;2023-07-13T23:17:11;99780.16;;;15.07;86.30
76753;BME280;65687;51.308;16.916;2023-07-13T23:22:25;99779.73;;;15.01;86.39
76753;BME280;65687;51.308;16.916;2023-07-13T23:27:27;99786.83;;;14.96;86.73
76753;BME280;65687;51.308;16.916;2023-07-13T23:32:28;99789.27;;;14.94;86.33
76753;BME280;65687;51.308;16.916;2023-07-13T23:37:30;99792.50;;;14.87;86.32
76753;BME280;65687;51.308;16.916;2023-07-13T23:42:31;99792.86;;;14.80;86.43
76753;BME280;65687;51.308;16.916;2023-07-13T23:47:33;99792.31;;;14.72;86.46
76753;BME280;65687;51.308;16.916;2023-07-13T23:52:35;99795.48;;;14.68;86.47
76753;BME280;65687;51.308;16.916;2023-07-13T23:57:37;99798.48;;;14.62;86.60
